Time;durP1;ratioP1;P1;durP2;ratioP2;P2;SDS_P1;SDS_P2;PMS_P1;PMS_P2;Temp;Humidity;BMP_temperature;BMP_pressure;BME280_temperature;BME280_humidity;BME280_pressure;Samples;Min_cycle;Max_cycle;Signal;HPM_P1;HPM_P2
2021/07/13 00:00:19;;;;;;;19.10;17.17;;;;;;;18.30;100.00;100344.13;4997930;28;20262;-67
2021/07/13 00:02:46;;;;;;;18.80;16.83;;;;;;;18.32;100.00;100344.78;5006890;28;20056;-68
2021/07/13 00:05:16;;;;;;;20.00;17.20;;;;;;;18.36;100.00;100349.69;4999991;28;20138;-68
2021/07/13 00:07:45;;;;;;;16.63;14.90;;;;;;;18.61;99.69;100345.50;4979717;28;20050;-68
2021/07/13 00:10:14;;;;;;;17.77;15.98;;;;;;;18.61;99.61;100350.00;4991183;28;20437;-68
2021/07/13 00:12:41;;;;;;;19.27;17.27;;;;;;;18.54;100.00;100347.06;4965948;28;20045;-69
2021/07/13 00:15:13;;;;;;;18.38;16.50;;;;;;;18.50;100.00;100348.34;4992585;28;20133;-68
2021/07/13 00:17:40;;;;;;;17.73;16.05;;;;;;;18.40;100.00;100345.75;5017941;28;20057;-68
2021/07/13 00:20:08;;;;;;;19.23;16.20;;;;;;;18.26;100.00;100340.91;4997214;28;20058;-67
2021/07/13 00:22:35;;;;;;;17.30;15.60;;;;;;;18.18;100.00;100340.78;4993863;28;20587;-68
2021/07/13 00:25:04;;;;;;;25.05;17.20;;;;;;;18.18;100.00;100338.13;4993585;28;20161;-68
2021/07/13 00:27:31;;;;;;;17.75;16.05;;;;;;;18.20;100.00;100329.00;5003777;28;20348;-68
2021/07/13 00:29:58;;;;;;;19.33;17.27;;;;;;;18.11;100.00;100324.56;5012747;28;20062;-68
2021/07/13 00:32:25;;;;;;;17.83;15.98;;;;;;;18.14;100.00;100323.41;5007230;28;20050;-68
2021/07/13 00:34:52;;;;;;;18.83;17.00;;;;;;;18.12;100.00;100322.75;5008846;28;20046;-68
2021/07/13 00:37:20;;;;;;;19.17;16.92;;;;;;;18.02;100.00;100325.44;5009943;28;20140;-69
2021/07/13 00:39:47;;;;;;;20.83;16.73;;;;;;;18.11;100.00;100329.06;5013644;28;20141;-68
2021/07/13 00:42:15;;;;;;;18.80;16.98;;;;;;;18.10;100.00;100328.22;5009204;28;20104;-69
2021/07/13 00:44:43;;;;;;;18.27;16.48;;;;;;;18.10;100.00;100328.22;5006744;28;20054;-68
2021/07/13 00:47:10;;;;;;;18.20;16.30;;;;;;;18.09;100.00;100331.00;5006559;28;20054;-68
2021/07/13 00:49:38;;;;;;;18.10;16.30;;;;;;;18.12;100.00;100331.56;4994697;28;20072;-68
2021/07/13 00:52:05;;;;;;;17.30;15.48;;;;;;;18.24;100.00;100329.56;4995658;28;20129;-68
2021/07/13 00:54:33;;;;;;;17.60;15.80;;;;;;;18.29;100.00;100337.97;5006143;28;20096;-69
2021/07/13 00:57:05;;;;;;;18.70;16.88;;;;;;;18.30;100.00;100334.28;5005623;28;20074;-68
2021/07/13 00:59:33;;;;;;;18.40;16.50;;;;;;;18.25;100.00;100333.91;4999139;28;20073;-68
2021/07/13 01:02:00;;;;;;;21.55;17.67;;;;;;;18.21;100.00;100324.53;5006082;28;20070;-68
2021/07/13 01:04:27;;;;;;;18.35;16.42;;;;;;;18.21;100.00;100330.69;5015694;28;20133;-68
2021/07/13 01:07:07;;;;;;;17.50;15.68;;;;;;;18.14;100.00;100329.59;4994180;28;20511;-68
2021/07/13 01:09:51;;;;;;;19.45;17.48;;;;;;;18.08;100.00;100330.19;4992627;28;20050;-68
2021/07/13 01:12:37;;;;;;;17.77;16.08;;;;;;;18.09;100.00;100331.84;4998792;28;20089;-68
2021/07/13 01:15:07;;;;;;;17.67;15.98;;;;;;;18.03;100.00;100323.63;4996947;28;20224;-69
2021/07/13 01:17:53;;;;;;;18.75;16.85;;;;;;;18.07;100.00;100335.66;4975076;28;20541;-68
2021/07/13 01:20:42;;;;;;;18.13;16.23;;;;;;;17.96;100.00;100331.34;5000205;28;20080;-68
2021/07/13 01:23:28;;;;;;;17.73;15.95;;;;;;;17.85;100.00;100329.69;5004411;28;20134;-68
2021/07/13 01:25:56;;;;;;;;;;;;;;;17.74;100.00;100321.84;4987101;28;20109;-69
2021/07/13 01:28:23;;;;;;;19.50;17.42;;;;;;;17.69;100.00;100319.59;4992958;28;19996;-68
2021/07/13 01:31:03;;;;;;;18.98;17.17;;;;;;;17.79;100.00;100318.78;4999545;28;20429;-69
2021/07/13 01:33:31;;;;;;;20.50;18.27;;;;;;;17.95;100.00;100316.34;4993596;28;20108;-69
2021/07/13 01:36:31;;;;;;;19.48;17.45;;;;;;;18.06;100.00;100318.84;5018150;28;20045;-69
2021/07/13 01:39:00;;;;;;;19.27;17.15;;;;;;;18.04;100.00;100315.47;4966553;28;20085;-67
2021/07/13 01:41:28;;;;;;;19.95;17.80;;;;;;;18.05;100.00;100303.81;4993600;28;20101;-69
2021/07/13 01:43:56;;;;;;;18.35;15.57;;;;;;;18.03;100.00;100304.97;4990145;28;20145;-68
2021/07/13 01:46:23;;;;;;;20.40;16.40;;;;;;;18.09;100.00;100307.88;4997318;28;20161;-70
2021/07/13 01:48:53;;;;;;;18.63;16.80;;;;;;;18.19;100.00;100311.34;4974040;28;20050;-68
2021/07/13 01:51:20;;;;;;;17.88;16.08;;;;;;;18.16;100.00;100311.63;4996022;28;20132;-68
2021/07/13 01:53:48;;;;;;;18.02;15.30;;;;;;;18.18;100.00;100309.66;4976317;28;20081;-67
2021/07/13 01:56:17;;;;;;;18.42;16.10;;;;;;;18.13;100.00;100301.28;4994693;28;20049;-68
2021/07/13 01:58:44;;;;;;;17.95;15.02;;;;;;;18.08;100.00;100303.53;4994822;28;20136;-68
2021/07/13 02:01:17;;;;;;;17.70;15.70;;;;;;;18.13;100.00;100303.94;4980391;28;20066;-68
2021/07/13 02:03:45;;;;;;;17.30;15.45;;;;;;;18.10;100.00;100298.91;5010624;28;20556;-68
2021/07/13 02:06:15;;;;;;;18.98;17.08;;;;;;;18.02;100.00;100305.97;5005353;28;20050;-67
2021/07/13 02:08:45;;;;;;;18.95;16.50;;;;;;;17.91;100.00;100296.31;5002428;28;20133;-68
2021/07/13 02:11:13;;;;;;;19.60;16.90;;;;;;;17.84;100.00;100305.88;4983023;28;20049;-68
2021/07/13 02:13:40;;;;;;;22.25;18.20;;;;;;;17.79;100.00;100297.50;4992989;28;20120;-69
2021/07/13 02:16:07;;;;;;;18.10;16.25;;;;;;;17.73;100.00;100304.19;4975243;28;20092;-69
2021/07/13 02:18:34;;;;;;;18.63;16.65;;;;;;;17.76;100.00;100306.59;5009331;28;20124;-69
2021/07/13 02:21:03;;;;;;;19.20;17.15;;;;;;;17.66;100.00;100306.59;5017015;28;20049;-68
2021/07/13 02:23:30;;;;;;;18.45;16.25;;;;;;;17.68;100.00;100312.59;4995481;28;20034;-69
2021/07/13 02:26:02;;;;;;;20.38;15.02;;;;;;;17.75;100.00;100314.75;4978919;28;20577;-69
2021/07/13 02:28:38;;;;;;;17.90;16.00;;;;;;;17.84;100.00;100311.22;5017874;28;20578;-69
2021/07/13 02:31:12;;;;;;;20.13;16.88;;;;;;;17.66;100.00;100308.41;4997088;28;20125;-69
2021/07/13 02:34:03;;;;;;;19.80;17.35;;;;;;;17.52;100.00;100304.38;5010104;28;20058;-69
2021/07/13 02:36:33;;;;;;;18.92;17.13;;;;;;;17.48;100.00;100297.66;5011885;28;20137;-69
2021/07/13 02:39:03;;;;;;;19.55;17.27;;;;;;;17.48;100.00;100295.00;5012155;28;20191;-69
2021/07/13 02:41:31;;;;;;;18.25;16.45;;;;;;;17.51;100.00;100300.03;4995257;28;20369;-68
2021/07/13 02:43:58;;;;;;;17.48;15.70;;;;;;;17.49;100.00;100295.84;5008648;28;20458;-67
2021/07/13 02:46:28;;;;;;;19.40;16.02;;;;;;;17.58;100.00;100297.66;4986998;28;20076;-68
2021/07/13 02:48:57;;;;;;;17.58;15.88;;;;;;;17.72;100.00;100299.84;4992396;28;20139;-69
2021/07/13 02:51:27;;;;;;;17.05;15.25;;;;;;;17.74;100.00;100294.41;4986853;28;20125;-69
2021/07/13 02:53:54;;;;;;;17.02;15.30;;;;;;;17.79;100.00;100298.31;4993643;28;20053;-69
2021/07/13 02:56:25;;;;;;;16.60;14.98;;;;;;;17.78;100.00;100293.13;4987049;28;20049;-69
2021/07/13 02:58:56;;;;;;;15.52;14.02;;;;;;;17.79;100.00;100284.19;4993791;28;20056;-68
2021/07/13 03:01:23;;;;;;;16.55;14.95;;;;;;;17.84;100.00;100287.25;4993713;28;20523;-69
2021/07/13 03:03:51;;;;;;;17.35;13.93;;;;;;;17.93;100.00;100289.88;4995425;28;20516;-68
2021/07/13 03:06:20;;;;;;;16.85;15.15;;;;;;;17.99;100.00;100288.44;4977990;28;20133;-68
2021/07/13 03:08:47;;;;;;;16.45;14.82;;;;;;;18.01;100.00;100290.94;4991891;28;20543;-68
2021/07/13 03:11:15;;;;;;;16.50;14.88;;;;;;;17.96;100.00;100288.72;4997545;28;20085;-67
2021/07/13 03:13:42;;;;;;;16.30;14.70;;;;;;;17.99;100.00;100283.09;4986493;28;20104;-68
2021/07/13 03:16:10;;;;;;;16.42;14.82;;;;;;;18.00;100.00;100287.44;5014647;28;20592;-68
2021/07/13 03:18:37;;;;;;;17.00;15.32;;;;;;;18.17;100.00;100297.31;4976117;28;20050;-68
2021/07/13 03:21:07;;;;;;;16.67;14.98;;;;;;;18.27;100.00;100293.78;4990249;28;20102;-68
2021/07/13 03:23:37;;;;;;;15.38;13.98;;;;;;;18.40;99.54;100291.59;4990226;28;20077;-68
2021/07/13 03:26:06;;;;;;;16.10;14.40;;;;;;;18.53;97.96;100285.91;4987860;28;20081;-68
2021/07/13 03:28:34;;;;;;;14.68;13.30;;;;;;;18.51;98.64;100282.56;4991546;28;20134;-68
2021/07/13 03:31:01;;;;;;;15.10;13.57;;;;;;;18.55;98.21;100281.25;4999079;28;20073;-68
2021/07/13 03:33:29;;;;;;;14.93;13.43;;;;;;;18.64;97.87;100277.69;4977850;28;20496;-69
2021/07/13 03:35:57;;;;;;;19.85;13.88;;;;;;;18.56;98.10;100283.81;4997514;28;20139;-67
2021/07/13 03:38:25;;;;;;;15.18;13.57;;;;;;;18.77;95.96;100277.38;5001932;28;20117;-68
2021/07/13 03:40:52;;;;;;;16.02;14.40;;;;;;;18.91;94.73;100276.81;5012883;28;20092;-68
2021/07/13 03:43:20;;;;;;;20.05;14.02;;;;;;;19.03;93.42;100270.28;4974742;28;20060;-68
2021/07/13 03:45:48;;;;;;;15.32;13.88;;;;;;;19.00;94.03;100275.06;5004464;28;20066;-67
2021/07/13 03:48:16;;;;;;;16.52;14.38;;;;;;;19.14;92.87;100272.72;4992796;28;20100;-69
2021/07/13 03:50:44;;;;;;;15.07;13.68;;;;;;;19.21;92.15;100276.44;4995273;28;20132;-68
2021/07/13 03:53:13;;;;;;;17.50;14.30;;;;;;;19.34;91.36;100275.19;4990519;28;20520;-68
2021/07/13 03:55:42;;;;;;;15.88;14.27;;;;;;;19.34;91.66;100276.03;4991297;28;20128;-68
2021/07/13 03:58:09;;;;;;;17.15;14.40;;;;;;;19.39;91.42;100267.56;5007845;28;20500;-69
2021/07/13 04:00:36;;;;;;;19.33;13.63;;;;;;;19.49;90.58;100270.97;5000916;28;20412;-68
2021/07/13 04:03:03;;;;;;;16.67;14.38;;;;;;;19.60;89.89;100270.75;5012853;28;20751;-68
2021/07/13 04:05:31;;;;;;;14.80;12.80;;;;;;;19.65;89.32;100265.75;5011363;28;20081;-68
2021/07/13 04:07:58;;;;;;;15.02;13.45;;;;;;;19.74;88.24;100272.00;4994907;28;20133;-68
2021/07/13 04:10:25;;;;;;;15.25;13.55;;;;;;;19.66;89.25;100274.63;4991707;28;20042;-68
2021/07/13 04:12:52;;;;;;;17.55;13.35;;;;;;;19.72;89.05;100285.53;5005002;28;20136;-68
2021/07/13 04:15:20;;;;;;;14.95;13.55;;;;;;;19.82;88.27;100280.06;4997176;28;20125;-68
2021/07/13 04:17:48;;;;;;;15.90;13.48;;;;;;;19.85;87.57;100276.22;5013224;28;20050;-70
2021/07/13 04:20:15;;;;;;;17.33;13.93;;;;;;;19.93;87.91;100273.59;4990725;28;20152;-69
2021/07/13 04:22:44;;;;;;;15.27;13.23;;;;;;;20.05;87.08;100282.19;5010071;28;20137;-67
2021/07/13 04:25:12;;;;;;;14.45;13.00;;;;;;;20.16;86.52;100288.06;4996782;28;20050;-68
2021/07/13 04:27:41;;;;;;;15.38;13.43;;;;;;;20.32;86.03;100283.78;5002296;28;20080;-68
2021/07/13 04:30:09;;;;;;;15.05;12.98;;;;;;;20.44;84.95;100286.03;5010274;28;20085;-67
2021/07/13 04:32:37;;;;;;;14.68;12.65;;;;;;;20.72;84.15;100277.75;4992793;28;20073;-68
2021/07/13 04:35:05;;;;;;;16.95;12.30;;;;;;;21.88;78.20;100269.50;5008345;28;20082;-68
2021/07/13 04:37:32;;;;;;;12.77;11.48;;;;;;;23.12;72.95;100268.72;5008605;28;20501;-68
2021/07/13 04:39:59;;;;;;;13.25;11.27;;;;;;;24.45;66.44;100271.50;5005216;28;20464;-69
2021/07/13 04:42:27;;;;;;;13.40;10.18;;;;;;;25.70;61.06;100263.75;5007946;28;20132;-68
2021/07/13 04:44:54;;;;;;;12.70;10.70;;;;;;;26.54;56.97;100262.75;5013230;28;20057;-68
2021/07/13 04:47:21;;;;;;;11.02;9.82;;;;;;;27.99;52.55;100263.81;5003992;28;20046;-68
2021/07/13 04:49:48;;;;;;;11.15;10.07;;;;;;;28.46;50.57;100272.59;4998172;28;20487;-69
2021/07/13 04:52:16;;;;;;;10.93;9.30;;;;;;;28.99;48.90;100273.16;4990776;28;20463;-69
2021/07/13 04:54:45;;;;;;;12.82;9.18;;;;;;;29.50;46.84;100277.53;4994552;28;20069;-69
2021/07/13 04:57:12;;;;;;;10.57;9.35;;;;;;;29.93;45.86;100274.00;5001668;28;20524;-67
2021/07/13 04:59:39;;;;;;;12.57;9.40;;;;;;;30.41;44.37;100275.13;4994601;28;20643;-68
2021/07/13 05:02:07;;;;;;;11.73;10.55;;;;;;;30.90;43.75;100265.88;5007336;28;20045;-70
2021/07/13 05:04:34;;;;;;;10.15;9.27;;;;;;;30.82;43.26;100276.25;5002368;28;20157;-69
2021/07/13 05:07:02;;;;;;;11.35;9.30;;;;;;;31.35;42.79;100279.00;5008717;28;20080;-70
2021/07/13 05:09:29;;;;;;;11.27;9.30;;;;;;;32.63;39.95;100271.69;5012628;28;20116;-68
2021/07/13 05:11:56;;;;;;;13.18;9.18;;;;;;;32.46;39.44;100271.63;5005576;28;20085;-69
2021/07/13 05:14:23;;;;;;;11.90;9.68;;;;;;;32.79;38.67;100275.53;5002567;28;20077;-68
2021/07/13 05:16:50;;;;;;;10.55;9.52;;;;;;;32.71;39.24;100276.75;5008780;28;20145;-69
2021/07/13 05:19:18;;;;;;;9.77;8.90;;;;;;;33.08;37.36;100273.59;5015271;28;20253;-68
2021/07/13 05:21:49;;;;;;;12.30;10.48;;;;;;;32.97;37.94;100274.53;4986730;28;20136;-69
2021/07/13 05:24:17;;;;;;;12.23;9.52;;;;;;;32.23;39.49;100274.41;5007308;28;20054;-69
2021/07/13 05:26:45;;;;;;;10.30;9.38;;;;;;;32.32;39.68;100281.13;5001876;28;20415;-70
2021/07/13 05:29:12;;;;;;;12.38;9.65;;;;;;;32.91;38.05;100287.22;4995389;28;20129;-68
2021/07/13 05:31:39;;;;;;;12.18;9.35;;;;;;;33.41;37.64;100285.56;5001461;28;20065;-69
2021/07/13 05:34:07;;;;;;;12.27;10.68;;;;;;;34.27;35.65;100283.28;4996392;28;20136;-68
2021/07/13 05:36:34;;;;;;;9.95;9.15;;;;;;;34.44;35.31;100283.19;5006152;28;20052;-68
2021/07/13 05:39:02;;;;;;;10.35;9.25;;;;;;;34.18;35.51;100277.44;4990401;28;20045;-69
2021/07/13 05:41:29;;;;;;;11.18;10.00;;;;;;;34.38;35.31;100281.50;4982195;28;20149;-69
2021/07/13 05:43:57;;;;;;;12.02;9.48;;;;;;;34.41;34.64;100278.25;5006441;28;20140;-68
2021/07/13 05:46:24;;;;;;;10.05;9.10;;;;;;;34.98;34.17;100281.34;5008708;28;20492;-68
2021/07/13 05:48:52;;;;;;;11.65;9.77;;;;;;;34.84;33.76;100271.88;5008504;28;20062;-67
2021/07/13 05:51:19;;;;;;;12.02;9.32;;;;;;;34.94;33.77;100280.16;4999263;28;20056;-68
2021/07/13 05:53:46;;;;;;;10.27;9.30;;;;;;;35.58;33.04;100267.59;4995511;28;20610;-69
2021/07/13 05:56:13;;;;;;;11.82;9.10;;;;;;;35.07;33.89;100278.13;4978312;28;20214;-68
2021/07/13 05:58:41;;;;;;;10.93;8.85;;;;;;;35.79;32.55;100277.56;5009263;28;20096;-67
2021/07/13 06:01:08;;;;;;;9.93;9.02;;;;;;;36.70;31.00;100284.50;4992400;28;20061;-69
2021/07/13 06:03:35;;;;;;;10.77;7.68;;;;;;;36.94;31.02;100282.13;5011646;28;20132;-69
2021/07/13 06:06:02;;;;;;;13.05;9.45;;;;;;;36.64;30.65;100277.38;5004454;28;20068;-70
2021/07/13 06:08:30;;;;;;;11.40;8.20;;;;;;;36.38;30.88;100285.50;5008154;28;20415;-69
2021/07/13 06:10:57;;;;;;;9.13;8.25;;;;;;;34.73;33.39;100279.19;5009597;28;20141;-68
2021/07/13 06:13:25;;;;;;;11.30;7.80;;;;;;;36.57;31.14;100274.09;5008537;28;20134;-69
2021/07/13 06:15:52;;;;;;;11.25;7.40;;;;;;;36.92;30.52;100278.81;5013333;28;20582;-70
2021/07/13 06:18:20;;;;;;;9.70;8.70;;;;;;;38.50;28.43;100271.06;5009616;28;20488;-68
2021/07/13 06:20:48;;;;;;;12.80;8.57;;;;;;;37.95;29.14;100283.94;5013665;28;20084;-68
2021/07/13 06:23:15;;;;;;;8.90;8.00;;;;;;;36.39;31.02;100280.88;5004106;28;20481;-68
2021/07/13 06:25:43;;;;;;;12.15;7.88;;;;;;;37.59;29.59;100285.13;4993874;28;20129;-69
2021/07/13 06:28:11;;;;;;;9.15;8.25;;;;;;;37.95;28.75;100280.38;5014893;28;20128;-69
2021/07/13 06:30:39;;;;;;;8.20;7.60;;;;;;;37.58;29.63;100284.28;5015134;28;20191;-70
2021/07/13 06:33:06;;;;;;;14.00;8.10;;;;;;;37.64;29.27;100285.09;5008145;28;20513;-69
2021/07/13 06:35:33;;;;;;;11.38;8.60;;;;;;;37.36;30.21;100279.06;5009303;28;20141;-68
2021/07/13 06:38:02;;;;;;;9.70;8.70;;;;;;;38.22;28.20;100285.47;4989223;28;20148;-69
2021/07/13 06:40:30;;;;;;;9.95;7.45;;;;;;;37.55;29.16;100284.84;5008832;28;20526;-67
2021/07/13 06:42:57;;;;;;;13.40;7.63;;;;;;;37.63;29.34;100278.78;4990680;28;20141;-70
2021/07/13 06:45:24;;;;;;;8.02;7.32;;;;;;;37.58;29.65;100276.06;5006435;28;20089;-68
2021/07/13 06:47:55;;;;;;;9.68;6.47;;;;;;;38.58;27.55;100277.88;5008795;28;20050;-68
2021/07/13 06:50:23;;;;;;;7.30;6.55;;;;;;;38.35;27.41;100279.38;4992901;28;20058;-67
2021/07/13 06:52:52;;;;;;;7.72;6.30;;;;;;;38.12;28.34;100285.53;4995315;28;20054;-69
2021/07/13 06:55:19;;;;;;;7.13;6.50;;;;;;;38.15;28.00;100277.56;4975622;28;20732;-69
2021/07/13 06:57:47;;;;;;;9.27;6.45;;;;;;;38.47;27.57;100273.56;4993310;28;20129;-68
2021/07/13 07:00:14;;;;;;;8.50;6.68;;;;;;;37.95;28.16;100267.44;4987747;28;20045;-68
2021/07/13 07:02:41;;;;;;;8.52;6.75;;;;;;;37.15;29.65;100275.53;4990165;28;20053;-69
2021/07/13 07:05:09;;;;;;;13.30;6.28;;;;;;;37.38;29.03;100274.19;4994401;28;20066;-68
2021/07/13 07:07:46;;;;;;;9.57;5.82;;;;;;;37.42;29.05;100268.94;5005767;28;20043;-69
2021/07/13 07:10:15;;;;;;;6.50;5.63;;;;;;;38.25;27.97;100255.50;4994485;28;20073;-68
2021/07/13 07:12:45;;;;;;;9.15;5.88;;;;;;;37.89;28.77;100263.09;4992833;28;20073;-68
2021/07/13 07:15:12;;;;;;;9.35;5.60;;;;;;;37.37;29.37;100266.16;5009408;28;20081;-68
2021/07/13 07:17:48;;;;;;;13.15;5.97;;;;;;;37.38;29.58;100270.59;4990674;28;20058;-69
2021/07/13 07:20:17;;;;;;;9.65;5.60;;;;;;;37.87;28.99;100269.94;4978525;28;20050;-68
2021/07/13 07:22:44;;;;;;;6.78;4.95;;;;;;;38.22;28.67;100264.31;5001419;28;20104;-68
2021/07/13 07:25:12;;;;;;;7.88;5.32;;;;;;;38.08;28.29;100263.28;4994966;28;20053;-69
2021/07/13 07:27:39;;;;;;;9.30;5.75;;;;;;;38.09;28.78;100266.84;5001160;28;20119;-68
2021/07/13 07:30:08;;;;;;;9.32;6.05;;;;;;;38.83;27.18;100265.91;4980257;28;20119;-69
2021/07/13 07:32:36;;;;;;;9.63;6.63;;;;;;;38.37;27.77;100262.59;4976083;28;20049;-68
2021/07/13 07:35:06;;;;;;;8.32;6.20;;;;;;;38.22;28.35;100256.06;4992600;28;20145;-68
2021/07/13 07:37:34;;;;;;;8.50;6.10;;;;;;;38.56;27.56;100258.09;4990965;28;20161;-68
2021/07/13 07:40:05;;;;;;;9.18;6.50;;;;;;;39.31;26.82;100260.56;5011317;28;20503;-70
2021/07/13 07:42:33;;;;;;;9.68;6.30;;;;;;;38.76;27.19;100254.41;5006471;28;20092;-69
2021/07/13 07:45:00;;;;;;;6.47;5.88;;;;;;;39.30;26.54;100252.59;5001833;28;20046;-69
2021/07/13 07:47:27;;;;;;;9.10;6.22;;;;;;;39.02;26.89;100246.75;5010687;28;20107;-70
2021/07/13 07:49:54;;;;;;;8.20;6.07;;;;;;;39.01;27.00;100250.63;5013228;28;20478;-67
2021/07/13 07:52:21;;;;;;;6.38;5.88;;;;;;;39.95;25.11;100239.22;4989436;28;20050;-69
2021/07/13 07:54:49;;;;;;;7.88;5.90;;;;;;;39.77;25.98;100251.03;5014332;28;20161;-67
2021/07/13 07:57:16;;;;;;;5.88;5.35;;;;;;;40.00;25.31;100239.16;4989678;28;20194;-68
2021/07/13 07:59:43;;;;;;;10.68;5.82;;;;;;;39.39;26.44;100243.41;5016279;28;20576;-68
2021/07/13 08:02:10;;;;;;;5.97;5.38;;;;;;;39.13;25.99;100242.78;4991555;28;20077;-69
2021/07/13 08:04:38;;;;;;;9.13;5.32;;;;;;;39.20;25.90;100247.97;5010202;28;20085;-68
2021/07/13 08:07:05;;;;;;;5.82;5.22;;;;;;;39.03;26.12;100242.06;5000667;28;20054;-69
2021/07/13 08:09:32;;;;;;;6.90;5.65;;;;;;;39.56;25.02;100248.47;4994858;28;20599;-69
2021/07/13 08:11:59;;;;;;;6.18;5.20;;;;;;;38.94;25.65;100250.94;5002544;28;20559;-70
2021/07/13 08:14:26;;;;;;;5.72;5.15;;;;;;;39.10;24.39;100242.56;4997962;28;20065;-69
2021/07/13 08:16:55;;;;;;;6.55;5.13;;;;;;;39.73;24.14;100245.28;4991490;28;20457;-69
2021/07/13 08:19:22;;;;;;;9.50;5.72;;;;;;;39.25;25.38;100242.44;5006050;28;20136;-69
2021/07/13 08:21:49;;;;;;;8.50;5.28;;;;;;;38.47;26.19;100243.31;5010606;28;20145;-69
2021/07/13 08:24:16;;;;;;;8.50;5.85;;;;;;;38.05;26.83;100244.59;5003133;28;20611;-70
2021/07/13 08:26:44;;;;;;;5.30;4.72;;;;;;;37.82;26.99;100237.78;5012748;28;20165;-69
2021/07/13 08:29:11;;;;;;;6.75;4.90;;;;;;;38.15;26.22;100233.56;5002850;28;20124;-68
2021/07/13 08:31:38;;;;;;;5.32;4.25;;;;;;;38.65;25.39;100241.81;4992092;28;20135;-69
2021/07/13 08:34:06;;;;;;;5.63;4.30;;;;;;;38.71;25.25;100233.22;4995653;28;20059;-69
2021/07/13 08:36:37;;;;;;;5.50;5.00;;;;;;;36.25;28.88;100233.94;5009315;28;20133;-70
2021/07/13 08:39:04;;;;;;;8.93;4.95;;;;;;;34.95;30.85;100224.41;5012983;28;20109;-68
2021/07/13 08:41:33;;;;;;;4.70;4.30;;;;;;;34.71;30.40;100220.34;5002017;28;20054;-69
2021/07/13 08:44:00;;;;;;;6.97;4.30;;;;;;;33.25;33.11;100227.25;4989146;28;20109;-69
2021/07/13 08:46:27;;;;;;;6.00;4.18;;;;;;;32.49;34.94;100232.19;4996028;28;20050;-68
2021/07/13 08:48:55;;;;;;;5.22;4.70;;;;;;;31.84;36.67;100229.75;4996670;28;20054;-68
2021/07/13 08:51:23;;;;;;;7.40;4.70;;;;;;;30.71;38.21;100221.66;5016397;28;20078;-69
2021/07/13 08:53:50;;;;;;;5.45;4.50;;;;;;;29.89;40.41;100217.69;4994643;28;20080;-69
2021/07/13 08:56:17;;;;;;;7.32;4.80;;;;;;;30.44;39.51;100212.19;5006078;28;20050;-68
2021/07/13 08:58:44;;;;;;;3.92;3.63;;;;;;;30.33;37.86;100212.97;5011702;28;20428;-68
2021/07/13 09:01:12;;;;;;;7.15;4.07;;;;;;;30.11;39.19;100216.16;4977845;28;20520;-68
2021/07/13 09:03:53;;;;;;;4.80;3.55;;;;;;;29.53;39.76;100208.44;4988410;28;20050;-68
2021/07/13 09:06:22;;;;;;;3.60;3.28;;;;;;;29.69;39.53;100207.91;5003901;28;20108;-70
2021/07/13 09:08:49;;;;;;;5.82;3.38;;;;;;;29.31;39.54;100201.78;4994301;28;20081;-67
2021/07/13 09:11:22;;;;;;;4.82;3.65;;;;;;;29.53;39.63;100206.56;5014381;28;20054;-68
2021/07/13 09:13:54;;;;;;;6.15;3.72;;;;;;;29.61;39.15;100204.66;4984147;28;20670;-68
2021/07/13 09:16:29;;;;;;;5.22;3.40;;;;;;;29.41;40.39;100205.66;5009658;28;20050;-69
2021/07/13 09:18:57;;;;;;;;;;;;;;;29.24;41.07;100199.97;5010653;28;20077;-67
2021/07/13 09:21:26;;;;;;;4.30;3.53;;;;;;;29.65;40.12;100203.97;4960733;28;19926;-69
2021/07/13 09:24:14;;;;;;;4.07;3.50;;;;;;;29.27;40.82;100209.56;5014317;28;20156;-68
2021/07/13 09:26:46;;;;;;;4.53;3.72;;;;;;;29.38;39.90;100210.69;4982930;28;20057;-69
2021/07/13 09:29:40;;;;;;;3.42;3.00;;;;;;;29.73;39.46;100203.69;5007443;28;20838;-68
2021/07/13 09:32:23;;;;;;;5.28;2.95;;;;;;;30.29;38.62;100200.91;5003593;28;20045;-69
2021/07/13 09:35:01;;;;;;;3.95;3.28;;;;;;;30.13;38.68;100186.91;5001421;28;20104;-69
2021/07/13 09:37:36;;;;;;;4.65;3.40;;;;;;;30.43;39.17;100186.09;4994421;28;20054;-68
2021/07/13 09:40:14;;;;;;;3.63;3.33;;;;;;;30.54;38.49;100181.75;4996089;28;20096;-69
2021/07/13 09:42:44;;;;;;;5.57;2.97;;;;;;;30.54;37.87;100188.03;5008304;28;20057;-69
2021/07/13 09:45:20;;;;;;;4.70;3.65;;;;;;;30.44;38.79;100185.03;5012460;28;20089;-68
2021/07/13 09:47:48;;;;;;;4.75;3.22;;;;;;;30.38;37.84;100189.50;4993730;28;20153;-68
2021/07/13 09:50:39;;;;;;;4.15;3.55;;;;;;;30.23;38.61;100183.66;5011325;28;20124;-69
2021/07/13 09:53:09;;;;;;;3.38;2.83;;;;;;;30.40;38.26;100181.13;4995245;28;20494;-69
2021/07/13 09:55:37;;;;;;;5.07;3.25;;;;;;;30.74;39.06;100172.25;5014689;28;20133;-69
2021/07/13 09:58:22;;;;;;;3.25;2.95;;;;;;;31.34;36.88;100178.56;4998772;28;20049;-68
2021/07/13 10:00:51;;;;;;;5.30;3.05;;;;;;;31.36;37.23;100174.56;5011211;28;20081;-69
2021/07/13 10:03:21;;;;;;;4.70;3.38;;;;;;;30.88;37.94;100172.03;5008277;28;20725;-68
2021/07/13 10:05:53;;;;;;;3.78;3.10;;;;;;;30.94;38.06;100171.94;4984573;28;20145;-68
2021/07/13 10:08:22;;;;;;;3.65;3.03;;;;;;;31.39;37.07;100162.41;5008486;28;20485;-69
2021/07/13 10:10:49;;;;;;;3.42;2.88;;;;;;;31.32;36.72;100164.41;5000198;28;20137;-68
2021/07/13 10:13:17;;;;;;;5.10;3.28;;;;;;;31.07;36.99;100170.84;4995466;28;20122;-69
2021/07/13 10:15:47;;;;;;;2.58;2.38;;;;;;;31.08;36.86;100169.00;5013290;28;20787;-69
2021/07/13 10:18:20;;;;;;;3.03;2.60;;;;;;;31.03;36.86;100169.72;4994380;28;20128;-68
2021/07/13 10:20:48;;;;;;;4.05;2.90;;;;;;;31.04;36.09;100165.09;4994767;28;20085;-69
2021/07/13 10:23:16;;;;;;;4.25;3.03;;;;;;;31.27;36.35;100157.78;4994339;28;20046;-69
2021/07/13 10:25:44;;;;;;;5.75;3.35;;;;;;;31.84;35.32;100170.72;5006704;28;20046;-68
2021/07/13 10:28:12;;;;;;;3.20;2.90;;;;;;;31.68;34.68;100166.81;5007879;28;20125;-67
2021/07/13 10:30:46;;;;;;;4.03;3.10;;;;;;;31.61;35.16;100166.16;4990410;28;20548;-68
2021/07/13 10:33:32;;;;;;;3.28;2.78;;;;;;;31.33;35.89;100161.44;5010947;28;20218;-68
2021/07/13 10:36:31;;;;;;;4.28;2.95;;;;;;;31.04;36.42;100152.31;5010240;28;20109;-69
2021/07/13 10:39:23;;;;;;;3.25;2.83;;;;;;;30.50;37.57;100156.94;5008779;28;20139;-68
2021/07/13 10:41:50;;;;;;;6.30;2.67;;;;;;;30.54;37.06;100158.16;4994427;28;20429;-68
2021/07/13 10:44:46;;;;;;;5.07;3.00;;;;;;;30.50;37.64;100160.50;5000921;28;20469;-67
2021/07/13 10:47:20;;;;;;;3.53;2.90;;;;;;;30.19;38.27;100153.44;4984168;28;20042;-68
2021/07/13 10:50:17;;;;;;;3.60;3.22;;;;;;;30.31;37.49;100156.19;5002002;28;20460;-68
2021/07/13 10:52:58;;;;;;;3.97;2.95;;;;;;;30.29;36.90;100157.47;5005035;28;20141;-68
2021/07/13 10:55:31;;;;;;;3.85;2.65;;;;;;;30.46;36.14;100159.28;4992355;28;20077;-68
2021/07/13 10:58:26;;;;;;;4.28;2.88;;;;;;;30.59;35.61;100157.44;5010021;28;20182;-68
2021/07/13 11:00:54;;;;;;;3.00;2.70;;;;;;;30.19;36.23;100158.03;4979514;28;20045;-69
2021/07/13 11:03:27;;;;;;;4.32;2.50;;;;;;;30.06;37.41;100159.00;5006320;28;20050;-68
2021/07/13 11:05:58;;;;;;;3.00;2.67;;;;;;;30.07;36.84;100160.66;4997524;28;20049;-67
2021/07/13 11:08:40;;;;;;;3.83;3.00;;;;;;;30.58;36.16;100151.19;5001107;28;20115;-68
2021/07/13 11:11:13;;;;;;;3.50;2.50;;;;;;;30.34;35.40;100154.88;4993011;28;20591;-71
2021/07/13 11:13:45;;;;;;;3.58;2.67;;;;;;;30.48;36.12;100140.03;4977449;28;20050;-68
2021/07/13 11:16:13;;;;;;;3.88;3.00;;;;;;;30.15;36.58;100144.09;5008365;28;20054;-69
2021/07/13 11:18:42;;;;;;;4.97;2.50;;;;;;;30.56;36.30;100141.59;4999821;28;20144;-68
2021/07/13 11:21:27;;;;;;;2.92;2.67;;;;;;;30.40;35.67;100133.06;4999795;28;20160;-69
2021/07/13 11:23:56;;;;;;;3.03;2.72;;;;;;;30.48;35.26;100129.19;5010827;28;20085;-70
2021/07/13 11:26:25;;;;;;;4.18;2.33;;;;;;;30.18;34.75;100134.66;4964455;28;20529;-68